Alexander, Arkansas
Current Conditions -  °F | °C
As of 10:25 AM on Thursday 18 Dec 2014 (Local Time) from KLIT Reporting Station
Haze Haze  
Wind Chill:   Ceiling: 500
Heat Index:   Visibility: 3mi
Dew Point:   Wind: 5mph
Humidity: 87%   Direction: 50°NE
Pressure: 30.27"   Gusts: NA
Location:  34.63°N, 92.44°W
Report Text: KLIT 181625Z 05004KT 3SM BR OVC005 04/02 A3027 RMK AO2 CIG RGD
Loading
Personal Weather Stations






























Interactive Weather Map New forecast layout! Learn more

10-Day Weather Forecast

Advertisements
Track Severe Weather on mobile